createdAt,value
2023-05-14T00:00:26.765Z,2.77
2023-05-14T00:02:54.782Z,3.70
2023-05-14T00:05:22.896Z,3.77
2023-05-14T00:07:50.790Z,3.67
2023-05-14T00:10:20.730Z,3.50
2023-05-14T00:12:50.142Z,3.53
2023-05-14T00:15:18.105Z,2.50
2023-05-14T00:17:46.518Z,2.80
2023-05-14T00:20:14.501Z,3.50
2023-05-14T00:22:42.683Z,2.70
2023-05-14T00:25:11.040Z,2.50
2023-05-14T00:27:38.882Z,3.07
2023-05-14T00:30:09.289Z,2.43
2023-05-14T00:32:37.701Z,3.10
2023-05-14T00:35:06.382Z,3.17
2023-05-14T00:37:34.280Z,3.33
2023-05-14T00:40:02.179Z,4.10
2023-05-14T00:42:30.198Z,3.63
2023-05-14T00:44:58.097Z,2.83
2023-05-14T00:47:27.577Z,3.10
2023-05-14T00:49:55.601Z,2.43
2023-05-14T00:52:23.664Z,2.60
2023-05-14T00:54:51.987Z,2.50
2023-05-14T00:57:20.050Z,2.50
2023-05-14T00:59:48.026Z,2.57
2023-05-14T01:02:15.898Z,2.90
2023-05-14T01:04:45.228Z,2.10
2023-05-14T01:07:21.833Z,2.27
2023-05-14T01:09:55.028Z,2.40
2023-05-14T01:12:31.035Z,2.20
2023-05-14T01:15:07.541Z,2.30
2023-05-14T01:17:42.563Z,2.43
2023-05-14T01:20:13.322Z,2.50
2023-05-14T01:22:42.700Z,2.30
2023-05-14T01:25:11.330Z,2.07
2023-05-14T01:27:46.528Z,2.37
2023-05-14T01:30:19.040Z,2.30
2023-05-14T01:32:52.181Z,2.00
2023-05-14T01:35:21.319Z,2.17
2023-05-14T01:37:51.461Z,2.03
2023-05-14T01:40:19.945Z,2.20
2023-05-14T01:42:48.187Z,2.40
2023-05-14T01:45:16.368Z,2.37
2023-05-14T01:47:44.416Z,2.20
2023-05-14T01:50:12.429Z,2.13
2023-05-14T01:52:40.969Z,2.27
2023-05-14T01:55:11.135Z,2.23
2023-05-14T01:57:38.994Z,2.20
2023-05-14T02:00:08.160Z,2.50
2023-05-14T02:02:36.115Z,2.03
2023-05-14T02:05:06.774Z,2.20
2023-05-14T02:07:35.308Z,2.10
2023-05-14T02:10:03.210Z,2.50
2023-05-14T02:12:32.573Z,2.20
2023-05-14T02:15:00.588Z,2.30
2023-05-14T02:17:28.450Z,2.20
2023-05-14T02:19:56.330Z,2.10
2023-05-14T02:22:24.316Z,2.37
2023-05-14T02:24:52.141Z,2.50
2023-05-14T02:27:20.037Z,1.93
2023-05-14T02:29:49.504Z,2.20
2023-05-14T02:32:17.495Z,2.33
2023-05-14T02:34:45.358Z,2.37
2023-05-14T02:37:13.209Z,2.33
2023-05-14T02:39:41.078Z,2.03
2023-05-14T02:42:08.965Z,2.53
2023-05-14T02:44:36.996Z,2.77
2023-05-14T02:47:06.863Z,2.63
2023-05-14T02:49:34.764Z,2.40
2023-05-14T02:52:02.628Z,1.97
2023-05-14T02:54:30.515Z,2.23
2023-05-14T02:56:58.341Z,2.17
2023-05-14T02:59:26.744Z,2.20
2023-05-14T03:01:55.135Z,2.13
2023-05-14T03:04:24.899Z,2.30
2023-05-14T03:06:52.907Z,2.23
2023-05-14T03:09:21.146Z,1.83
2023-05-14T03:11:49.072Z,2.57
2023-05-14T03:14:16.941Z,1.80
2023-05-14T03:16:44.843Z,2.10
2023-05-14T03:19:12.782Z,2.07
2023-05-14T03:21:42.078Z,1.90
2023-05-14T03:24:10.058Z,2.20
2023-05-14T03:26:38.134Z,1.90
2023-05-14T03:29:06.046Z,2.10
2023-05-14T03:31:34.340Z,1.90
2023-05-14T03:34:02.416Z,2.00
2023-05-14T03:36:30.380Z,2.40
2023-05-14T03:38:59.595Z,2.20
2023-05-14T03:41:27.408Z,2.00
2023-05-14T03:43:55.244Z,1.93
2023-05-14T03:46:23.104Z,2.43
2023-05-14T03:48:51.170Z,2.90
2023-05-14T03:51:19.408Z,2.53
2023-05-14T03:53:47.206Z,2.73
2023-05-14T03:56:16.455Z,2.40
2023-05-14T03:58:44.310Z,2.47
2023-05-14T04:01:12.216Z,3.13
2023-05-14T04:03:40.120Z,2.57
2023-05-14T04:06:08.490Z,2.70
2023-05-14T04:08:36.417Z,2.77
2023-05-14T04:11:04.392Z,3.07
2023-05-14T04:13:33.786Z,2.63
2023-05-14T04:16:01.670Z,2.50
2023-05-14T04:18:29.574Z,2.70
2023-05-14T04:20:57.630Z,3.10
2023-05-14T04:23:25.705Z,3.00
2023-05-14T04:25:53.584Z,3.03
2023-05-14T04:28:21.486Z,2.47
2023-05-14T04:30:51.249Z,2.40
2023-05-14T04:33:19.217Z,2.70
2023-05-14T04:35:47.885Z,2.43
2023-05-14T04:38:15.924Z,2.67
2023-05-14T04:40:43.784Z,2.57
2023-05-14T04:43:11.782Z,2.73
2023-05-14T04:45:41.121Z,2.63
2023-05-14T04:48:10.750Z,2.80
2023-05-14T04:50:38.755Z,2.93
2023-05-14T04:53:06.686Z,3.23
2023-05-14T04:55:34.526Z,2.60
2023-05-14T04:58:02.437Z,3.10
2023-05-14T05:00:30.642Z,3.10
2023-05-14T05:02:58.900Z,3.30
2023-05-14T05:05:28.438Z,3.67
2023-05-14T05:07:56.556Z,3.30
2023-05-14T05:10:25.149Z,3.33
2023-05-14T05:12:53.345Z,3.03
2023-05-14T05:15:21.695Z,3.47
2023-05-14T05:17:49.580Z,2.47
2023-05-14T05:20:17.925Z,3.27
2023-05-14T05:22:47.348Z,3.40
2023-05-14T05:25:15.290Z,3.47
2023-05-14T05:27:43.227Z,2.87
2023-05-14T05:30:12.101Z,3.33
2023-05-14T05:32:41.585Z,3.20
2023-05-14T05:35:10.586Z,3.40
2023-05-14T05:37:38.556Z,3.40
2023-05-14T05:40:10.343Z,3.60
2023-05-14T05:42:38.421Z,3.93
2023-05-14T05:45:08.397Z,3.33
2023-05-14T05:47:36.372Z,3.43
2023-05-14T05:50:04.328Z,4.33
2023-05-14T05:52:32.169Z,4.17
2023-05-14T05:55:00.303Z,4.77
2023-05-14T05:57:30.009Z,4.30
2023-05-14T05:59:58.279Z,5.03
2023-05-14T06:02:26.517Z,4.63
2023-05-14T06:04:54.530Z,5.17
2023-05-14T06:07:22.561Z,5.23
2023-05-14T06:09:50.685Z,8.80
2023-05-14T06:12:18.589Z,6.90
2023-05-14T06:14:48.148Z,10.27
2023-05-14T06:17:16.285Z,9.27
2023-05-14T06:19:44.504Z,8.20
2023-05-14T06:22:12.387Z,7.73
2023-05-14T06:24:40.565Z,6.60
2023-05-14T06:27:08.497Z,6.03
2023-05-14T06:29:36.404Z,6.40
2023-05-14T06:32:06.898Z,6.97
2023-05-14T06:34:34.854Z,6.90
2023-05-14T06:37:04.359Z,7.00
2023-05-14T06:39:32.340Z,7.60
2023-05-14T06:42:00.342Z,7.17
2023-05-14T06:44:28.526Z,7.80
2023-05-14T06:46:56.692Z,6.63
2023-05-14T06:49:26.021Z,7.37
2023-05-14T06:51:54.345Z,5.80
2023-05-14T06:54:22.304Z,6.87
2023-05-14T06:56:50.452Z,7.13
2023-05-14T06:59:18.397Z,7.77
2023-05-14T07:01:46.591Z,7.27
2023-05-14T07:04:14.619Z,6.87
2023-05-14T07:06:43.968Z,7.37
2023-05-14T07:09:12.061Z,7.70
2023-05-14T07:11:40.167Z,8.50
2023-05-14T07:14:08.069Z,7.27
2023-05-14T07:16:36.352Z,5.90
2023-05-14T07:19:04.401Z,8.30
2023-05-14T07:21:32.540Z,8.87
2023-05-14T07:24:02.148Z,7.70
2023-05-14T07:26:30.519Z,9.80
2023-05-14T07:28:58.659Z,7.70
2023-05-14T07:31:26.704Z,6.10
2023-05-14T07:33:55.117Z,5.47
2023-05-14T07:36:23.818Z,11.20
2023-05-14T07:38:51.801Z,14.47
2023-05-14T07:41:21.727Z,13.73
2023-05-14T07:43:50.005Z,9.63
2023-05-14T07:46:18.072Z,7.57
2023-05-14T07:48:46.136Z,6.80
2023-05-14T07:51:14.220Z,6.90
2023-05-14T07:53:44.868Z,7.03
2023-05-14T07:56:15.449Z,7.70
2023-05-14T07:58:45.123Z,8.27
2023-05-14T08:01:15.894Z,7.60
2023-05-14T08:03:46.371Z,8.77
2023-05-14T08:06:14.698Z,8.13
2023-05-14T08:08:42.823Z,7.80
2023-05-14T08:11:11.131Z,6.63
2023-05-14T08:13:39.148Z,6.03
2023-05-14T08:16:11.653Z,6.77
2023-05-14T08:18:40.422Z,7.57
2023-05-14T08:21:08.477Z,6.77
2023-05-14T08:23:36.440Z,7.60
2023-05-14T08:26:04.519Z,8.27
2023-05-14T08:28:32.509Z,7.43
2023-05-14T08:31:00.737Z,7.23
2023-05-14T08:33:30.198Z,6.43
2023-05-14T08:36:00.665Z,7.97
2023-05-14T08:38:28.699Z,8.23
2023-05-14T08:40:58.960Z,8.30
2023-05-14T08:43:30.471Z,9.27
2023-05-14T08:46:01.938Z,9.63
2023-05-14T08:48:34.976Z,8.60
2023-05-14T08:51:03.684Z,7.93
2023-05-14T08:53:32.398Z,7.87
2023-05-14T08:56:02.486Z,8.20
2023-05-14T08:58:30.555Z,8.40
2023-05-14T09:00:59.030Z,9.10
2023-05-14T09:03:27.273Z,8.13
2023-05-14T09:05:59.988Z,7.43
2023-05-14T09:08:28.292Z,9.07
2023-05-14T09:10:56.428Z,8.07
2023-05-14T09:13:25.822Z,8.00
2023-05-14T09:15:56.378Z,6.60
2023-05-14T09:18:25.219Z,6.77
2023-05-14T09:20:53.703Z,7.30
2023-05-14T09:23:23.382Z,6.30
2023-05-14T09:25:51.364Z,7.00
2023-05-14T09:28:21.386Z,6.73
2023-05-14T09:30:52.534Z,8.30
2023-05-14T09:33:28.651Z,8.63
2023-05-14T09:36:00.189Z,8.47
2023-05-14T09:38:32.819Z,7.80
2023-05-14T09:41:01.726Z,7.70
2023-05-14T09:43:29.963Z,9.13
2023-05-14T09:45:57.906Z,7.37
2023-05-14T09:48:26.932Z,9.27
2023-05-14T09:50:55.475Z,7.27
2023-05-14T09:53:23.534Z,6.80
2023-05-14T09:55:53.357Z,6.57
2023-05-14T09:58:21.477Z,7.10
2023-05-14T10:00:50.112Z,7.27
2023-05-14T10:03:20.181Z,7.13
2023-05-14T10:05:50.288Z,7.80
2023-05-14T10:08:23.275Z,7.37
2023-05-14T10:10:53.429Z,7.90
2023-05-14T10:13:24.108Z,8.10
2023-05-14T10:15:58.898Z,7.43
2023-05-14T10:18:32.361Z,8.43
2023-05-14T10:21:06.014Z,9.00
2023-05-14T10:23:37.980Z,9.33
2023-05-14T10:26:07.927Z,9.17
2023-05-14T10:28:36.648Z,8.60
2023-05-14T10:31:04.971Z,8.00
2023-05-14T10:33:49.305Z,8.13
2023-05-14T10:36:18.598Z,8.40
2023-05-14T10:38:46.930Z,8.10
2023-05-14T10:41:18.377Z,10.17
2023-05-14T10:43:46.298Z,8.53
2023-05-14T10:46:15.811Z,10.23
2023-05-14T10:48:45.427Z,9.33
2023-05-14T10:51:14.237Z,10.80
2023-05-14T10:53:43.288Z,10.83
2023-05-14T10:56:12.890Z,11.23
2023-05-14T10:58:45.140Z,11.07
2023-05-14T11:01:14.773Z,9.27
2023-05-14T11:03:45.704Z,9.73
2023-05-14T11:06:15.175Z,10.80
2023-05-14T11:08:44.137Z,10.00
2023-05-14T11:11:12.211Z,9.73
2023-05-14T11:13:40.319Z,12.17
2023-05-14T11:18:42.120Z,12.47
2023-05-14T11:21:10.257Z,10.47
2023-05-14T11:23:38.357Z,13.93
2023-05-14T11:26:06.486Z,10.43
2023-05-14T11:28:35.815Z,11.10
2023-05-14T11:31:05.932Z,10.80
2023-05-14T11:33:35.273Z,9.27
2023-05-14T11:36:04.099Z,10.07
2023-05-14T11:38:32.229Z,8.30
2023-05-14T11:41:01.774Z,8.77
2023-05-14T11:43:32.808Z,9.77
2023-05-14T11:46:01.051Z,7.90
2023-05-14T11:48:29.051Z,9.70
2023-05-14T11:50:58.561Z,7.87
2023-05-14T11:53:28.790Z,7.73
2023-05-14T11:55:57.983Z,6.57
2023-05-14T11:58:26.874Z,6.57
2023-05-14T12:00:57.102Z,8.23
2023-05-14T12:03:26.990Z,8.33
2023-05-14T12:06:00.482Z,7.80
2023-05-14T12:08:31.476Z,7.87
2023-05-14T12:11:00.590Z,7.50
2023-05-14T12:13:29.361Z,8.20
2023-05-14T12:15:59.277Z,7.00
2023-05-14T12:18:29.226Z,7.10
2023-05-14T12:21:03.255Z,6.97
2023-05-14T12:23:33.579Z,6.83
2023-05-14T12:26:04.222Z,7.13
2023-05-14T12:28:33.853Z,7.50
2023-05-14T12:31:04.440Z,7.50
2023-05-14T12:33:32.660Z,7.97
2023-05-14T12:36:14.049Z,8.17
2023-05-14T12:38:49.193Z,7.67
2023-05-14T12:41:17.727Z,8.33
2023-05-14T12:43:46.028Z,8.83
2023-05-14T12:46:14.334Z,7.93
2023-05-14T12:48:42.316Z,9.87
2023-05-14T12:51:11.583Z,9.43
2023-05-14T12:53:39.623Z,10.20
2023-05-14T12:56:08.591Z,10.13
2023-05-14T12:58:36.805Z,10.50
2023-05-14T13:01:05.356Z,11.37
2023-05-14T13:03:33.639Z,10.77
2023-05-14T13:06:01.696Z,9.73
2023-05-14T13:08:31.265Z,8.60
2023-05-14T13:10:59.078Z,10.13
2023-05-14T13:13:27.132Z,11.07
2023-05-14T13:15:55.705Z,11.77
2023-05-14T13:18:23.568Z,13.67
2023-05-14T13:20:51.847Z,11.93
2023-05-14T13:23:19.840Z,12.80
2023-05-14T13:25:50.070Z,11.13
2023-05-14T13:28:18.061Z,12.43
2023-05-14T13:31:05.751Z,9.70
2023-05-14T13:33:34.535Z,11.87
2023-05-14T13:36:02.522Z,10.70
2023-05-14T13:38:30.652Z,11.77
2023-05-14T13:41:02.544Z,11.33
2023-05-14T13:43:31.822Z,10.10
2023-05-14T13:46:00.132Z,11.83
2023-05-14T13:48:28.386Z,12.97
2023-05-14T13:50:56.795Z,12.40
2023-05-14T13:53:25.450Z,11.47
2023-05-14T13:55:56.618Z,14.40
2023-05-14T13:58:26.674Z,11.83
2023-05-14T14:00:55.067Z,13.33
2023-05-14T14:03:22.975Z,11.67
2023-05-14T14:05:52.264Z,10.80
2023-05-14T14:08:23.988Z,12.17
2023-05-14T14:10:54.625Z,11.00
2023-05-14T14:13:23.425Z,12.10
2023-05-14T14:15:52.903Z,11.23
2023-05-14T14:18:20.818Z,11.47
2023-05-14T14:20:49.160Z,10.63
2023-05-14T14:23:17.084Z,9.60
2023-05-14T14:25:45.004Z,11.40
2023-05-14T14:28:12.883Z,10.20
2023-05-14T14:30:41.153Z,11.47
2023-05-14T14:33:11.317Z,12.80
2023-05-14T14:35:39.257Z,11.67
2023-05-14T14:38:07.125Z,12.37
2023-05-14T14:40:35.204Z,12.70
2023-05-14T14:43:03.182Z,13.87
2023-05-14T14:45:31.155Z,8.67
2023-05-14T14:48:34.143Z,12.03
2023-05-14T14:51:02.370Z,10.37
2023-05-14T14:53:30.839Z,12.30
2023-05-14T14:55:58.949Z,11.53
2023-05-14T14:58:26.837Z,11.10
2023-05-14T15:00:56.880Z,12.83
2023-05-14T15:03:26.018Z,14.10
2023-05-14T15:05:55.485Z,12.77
2023-05-14T15:08:27.385Z,12.40
2023-05-14T15:10:55.966Z,13.33
2023-05-14T15:13:24.651Z,14.10
2023-05-14T15:15:53.190Z,12.53
2023-05-14T15:18:21.290Z,13.50
2023-05-14T15:20:49.486Z,15.70
2023-05-14T15:23:19.168Z,13.73
2023-05-14T15:25:47.109Z,14.77
2023-05-14T15:28:15.106Z,12.50
2023-05-14T15:30:43.217Z,10.77
2023-05-14T15:33:12.008Z,16.03
2023-05-14T15:35:39.841Z,13.00
2023-05-14T15:38:08.084Z,14.30
2023-05-14T15:40:37.400Z,14.20
2023-05-14T15:43:05.866Z,13.73
2023-05-14T15:45:34.521Z,14.73
2023-05-14T15:48:02.639Z,13.67
2023-05-14T15:50:30.696Z,13.47
2023-05-14T15:52:58.690Z,13.37
2023-05-14T15:55:26.659Z,9.40
2023-05-14T15:57:55.897Z,10.00
2023-05-14T16:00:25.090Z,8.20
2023-05-14T16:02:53.401Z,9.93
2023-05-14T16:05:21.362Z,9.53
2023-05-14T16:07:49.470Z,11.60
2023-05-14T16:10:17.461Z,12.17
2023-05-14T16:12:45.360Z,9.47
2023-05-14T16:15:14.721Z,6.10
2023-05-14T16:17:42.666Z,6.33
2023-05-14T16:20:11.843Z,7.30
2023-05-14T16:22:39.821Z,7.07
2023-05-14T16:25:08.287Z,5.87
2023-05-14T16:27:36.554Z,7.47
2023-05-14T16:30:05.265Z,6.00
2023-05-14T16:32:34.573Z,6.53
2023-05-14T16:35:03.009Z,5.97
2023-05-14T16:37:32.114Z,5.37
2023-05-14T16:40:00.190Z,7.17
2023-05-14T16:42:28.072Z,7.57
2023-05-14T16:44:56.074Z,5.63
2023-05-14T16:47:23.996Z,5.53
2023-05-14T16:49:53.228Z,4.73
2023-05-14T16:52:21.323Z,4.60
2023-05-14T16:54:49.211Z,4.70
2023-05-14T16:57:17.257Z,4.60
2023-05-14T16:59:45.270Z,3.80
2023-05-14T17:02:13.289Z,5.13
2023-05-14T17:04:42.346Z,8.57
2023-05-14T17:07:12.333Z,7.70
2023-05-14T17:09:40.261Z,5.57
2023-05-14T17:12:09.801Z,4.40
2023-05-14T17:14:37.662Z,5.63
2023-05-14T17:17:06.099Z,5.43
2023-05-14T17:19:36.350Z,5.50
2023-05-14T17:22:05.987Z,5.70
2023-05-14T17:24:36.569Z,5.53
2023-05-14T17:27:04.742Z,5.00
2023-05-14T17:29:32.955Z,4.77
2023-05-14T17:32:01.214Z,4.37
2023-05-14T17:34:29.246Z,5.23
2023-05-14T17:36:57.754Z,4.80
2023-05-14T17:39:25.681Z,5.17
2023-05-14T17:41:54.976Z,5.50
2023-05-14T17:44:22.968Z,5.50
2023-05-14T17:46:51.045Z,5.40
2023-05-14T17:49:19.002Z,6.07
2023-05-14T17:51:46.877Z,7.13
2023-05-14T17:54:14.945Z,6.47
2023-05-14T17:56:43.128Z,6.60
2023-05-14T17:59:13.003Z,6.93
2023-05-14T18:01:41.331Z,7.13
2023-05-14T18:04:09.324Z,10.20
2023-05-14T18:06:37.359Z,11.60
2023-05-14T18:09:05.509Z,10.60
2023-05-14T18:11:34.112Z,15.07
2023-05-14T18:14:02.628Z,14.30
2023-05-14T18:16:32.175Z,11.47
2023-05-14T18:19:00.801Z,8.27
2023-05-14T18:21:28.766Z,8.20
2023-05-14T18:23:56.615Z,7.43
2023-05-14T18:26:24.565Z,7.70
2023-05-14T18:28:52.912Z,7.20
2023-05-14T18:31:21.201Z,7.07
2023-05-14T18:33:50.521Z,7.17
2023-05-14T18:36:19.923Z,5.57
2023-05-14T18:38:47.880Z,6.37
2023-05-14T18:41:15.734Z,5.77
2023-05-14T18:43:43.605Z,5.53
2023-05-14T18:46:12.562Z,6.03
2023-05-14T18:48:40.612Z,3.63
2023-05-14T18:51:11.398Z,4.03
2023-05-14T18:53:39.422Z,4.17
2023-05-14T18:56:07.306Z,4.50
2023-05-14T18:58:35.327Z,4.10
2023-05-14T19:01:03.240Z,3.70
2023-05-14T19:03:31.264Z,4.40
2023-05-14T19:05:59.382Z,3.20
2023-05-14T19:08:28.581Z,3.83
2023-05-14T19:10:56.453Z,3.63
2023-05-14T19:13:24.896Z,2.97
2023-05-14T19:15:52.874Z,4.17
2023-05-14T19:18:20.880Z,3.50
2023-05-14T19:20:48.769Z,4.10
2023-05-14T19:23:16.616Z,4.23
2023-05-14T19:25:46.152Z,3.43
2023-05-14T19:28:14.047Z,4.10
2023-05-14T19:30:41.940Z,4.83
2023-05-14T19:33:09.957Z,3.67
2023-05-14T19:35:38.052Z,3.60
2023-05-14T19:38:05.966Z,3.40
2023-05-14T19:40:34.061Z,4.30
2023-05-14T19:43:03.369Z,4.17
2023-05-14T19:45:31.275Z,4.47
2023-05-14T19:47:59.314Z,3.23
2023-05-14T19:50:27.298Z,3.87
2023-05-14T19:52:56.750Z,4.10
2023-05-14T19:55:24.917Z,3.83
2023-05-14T19:57:53.124Z,3.57
2023-05-14T20:00:22.884Z,3.93
2023-05-14T20:02:50.930Z,3.97
2023-05-14T20:05:19.090Z,5.50
2023-05-14T20:07:49.099Z,5.40
2023-05-14T20:10:17.103Z,4.93
2023-05-14T20:12:44.961Z,5.33
2023-05-14T20:15:13.064Z,6.13
2023-05-14T20:17:42.437Z,5.00
2023-05-14T20:20:12.091Z,5.33
2023-05-14T20:22:40.378Z,6.93
2023-05-14T20:25:09.495Z,6.77
2023-05-14T20:27:37.613Z,7.13
2023-05-14T20:30:06.915Z,6.30
2023-05-14T20:32:35.158Z,7.10
2023-05-14T20:35:05.216Z,7.50
2023-05-14T20:37:34.287Z,7.13
2023-05-14T20:40:03.100Z,7.17
2023-05-14T20:42:31.058Z,6.20
2023-05-14T20:44:59.319Z,7.20
2023-05-14T20:47:30.487Z,6.43
2023-05-14T20:49:58.701Z,8.10
2023-05-14T20:52:28.031Z,6.63
2023-05-14T20:54:56.173Z,7.53
2023-05-14T20:57:24.141Z,7.70
2023-05-14T20:59:52.541Z,7.47
2023-05-14T21:02:20.886Z,8.17
2023-05-14T21:04:49.002Z,7.07
2023-05-14T21:07:17.126Z,6.40
2023-05-14T21:09:50.977Z,8.37
2023-05-14T21:12:19.035Z,8.43
2023-05-14T21:14:46.941Z,8.23
2023-05-14T21:17:14.969Z,8.20
2023-05-14T21:19:43.023Z,9.20
2023-05-14T21:22:11.124Z,8.23
2023-05-14T21:24:39.209Z,8.23
2023-05-14T21:27:08.856Z,7.90
2023-05-14T21:29:36.755Z,8.03
2023-05-14T21:32:05.028Z,7.17
2023-05-14T21:34:33.415Z,8.83
2023-05-14T21:37:01.387Z,7.53
2023-05-14T21:39:29.402Z,7.30
2023-05-14T21:41:57.319Z,7.60
2023-05-14T21:44:26.578Z,8.03
2023-05-14T21:46:54.519Z,8.13
2023-05-14T21:49:22.433Z,7.97
2023-05-14T21:51:53.349Z,8.33
2023-05-14T21:54:21.703Z,8.20
2023-05-14T21:56:49.694Z,9.23
2023-05-14T21:59:17.703Z,8.53
2023-05-14T22:02:05.484Z,8.30
2023-05-14T22:04:34.051Z,7.43
2023-05-14T22:07:02.015Z,6.87
2023-05-14T22:09:30.458Z,5.67
2023-05-14T22:11:58.695Z,7.90
2023-05-14T22:14:27.436Z,8.27
2023-05-14T22:16:56.865Z,6.10
2023-05-14T22:19:25.883Z,8.27
2023-05-14T22:21:54.052Z,5.87
2023-05-14T22:24:22.123Z,7.20
2023-05-14T22:26:50.038Z,6.80
2023-05-14T22:29:17.918Z,6.57
2023-05-14T22:31:46.303Z,6.87
2023-05-14T22:34:15.583Z,7.83
2023-05-14T22:36:43.498Z,7.07
2023-05-14T22:39:13.490Z,6.13
2023-05-14T22:41:41.597Z,5.73
2023-05-14T22:44:09.796Z,5.83
2023-05-14T22:46:37.838Z,6.20
2023-05-14T22:49:05.949Z,6.43
2023-05-14T22:51:35.222Z,5.43
2023-05-14T22:54:03.084Z,6.70
2023-05-14T22:56:30.990Z,7.37
2023-05-14T22:59:00.346Z,5.97
2023-05-14T23:01:28.442Z,6.03
2023-05-14T23:03:56.603Z,5.60
2023-05-14T23:06:25.651Z,6.10
2023-05-14T23:08:54.925Z,6.10
2023-05-14T23:11:23.536Z,5.30
2023-05-14T23:13:51.406Z,5.13
2023-05-14T23:16:19.368Z,6.17
2023-05-14T23:18:47.431Z,6.10
2023-05-14T23:21:15.644Z,5.67
2023-05-14T23:23:43.493Z,5.67
2023-05-14T23:26:12.815Z,6.27
2023-05-14T23:28:41.241Z,5.87
2023-05-14T23:31:09.603Z,5.87
2023-05-14T23:33:39.826Z,4.87
2023-05-14T23:36:08.637Z,6.70
2023-05-14T23:38:36.592Z,5.50
2023-05-14T23:41:04.476Z,7.20
2023-05-14T23:43:33.979Z,5.63
2023-05-14T23:46:02.409Z,5.27
2023-05-14T23:48:30.813Z,5.83
2023-05-14T23:50:58.611Z,6.40
2023-05-14T23:53:26.574Z,5.73
2023-05-14T23:55:54.520Z,6.50
2023-05-14T23:58:22.442Z,4.67
